Time;durP1;ratioP1;P1;durP2;ratioP2;P2;SDS_P1;SDS_P2;PMS_P1;PMS_P2;Temp;Humidity;BMP_temperature;BMP_pressure;BME280_temperature;BME280_humidity;BME280_pressure;Samples;Min_cycle;Max_cycle;Signal;HPM_P1;HPM_P2
2023/04/25 00:01:59;;;;;;;6.97;0.95;;;;;;;;;;5009148;28;20065;-63
2023/04/25 00:04:26;;;;;;;3.95;1.10;;;;;;;;;;5009103;28;20034;-64
2023/04/25 00:06:54;;;;;;;3.83;0.98;;;;;;;;;;5012220;28;20104;-63
2023/04/25 00:09:21;;;;;;;5.07;1.10;;;;;;;;;;5008522;28;20045;-63
2023/04/25 00:11:47;;;;;;;7.15;0.95;;;;;;;;;;5011224;28;20038;-62
2023/04/25 00:14:14;;;;;;;5.72;0.80;;;;;;;;;;5009216;28;20518;-62
2023/04/25 00:16:43;;;;;;;5.35;0.98;;;;;;;;;;5022619;28;20164;-60
2023/04/25 00:19:11;;;;;;;3.88;0.93;;;;;;;;;;5022731;28;20207;-65
2023/04/25 00:21:40;;;;;;;5.43;0.68;;;;;;;;;;5023312;28;20175;-62
2023/04/25 00:24:07;;;;;;;7.07;0.60;;;;;;;;;;5008005;28;20550;-63
2023/04/25 00:26:35;;;;;;;6.60;0.73;;;;;;;;;;5024199;28;20100;-64
2023/04/25 00:29:02;;;;;;;9.98;0.63;;;;;;;;;;5009806;28;20041;-62
2023/04/25 00:31:29;;;;;;;6.43;1.00;;;;;;;;;;5007238;28;20038;-62
2023/04/25 00:33:56;;;;;;;5.95;0.70;;;;;;;;;;5009132;28;20045;-64
2023/04/25 00:36:23;;;;;;;7.68;0.73;;;;;;;;;;5025896;28;20395;-64
2023/04/25 00:38:49;;;;;;;4.18;0.47;;;;;;;;;;5015616;28;20034;-64
2023/04/25 00:41:16;;;;;;;1.40;0.50;;;;;;;;;;5044148;28;20117;-63
2023/04/25 00:43:43;;;;;;;10.00;0.88;;;;;;;;;;5016607;28;20049;-61
2023/04/25 00:46:10;;;;;;;4.88;0.68;;;;;;;;;;5023925;28;20050;-62
2023/04/25 00:48:36;;;;;;;1.30;0.50;;;;;;;;;;5007640;28;20034;-61
2023/04/25 00:51:03;;;;;;;3.72;0.60;;;;;;;;;;5023163;28;20034;-57
2023/04/25 00:53:32;;;;;;;1.08;0.40;;;;;;;;;;5006680;28;20045;-56
2023/04/25 00:55:59;;;;;;;2.03;0.50;;;;;;;;;;5008470;28;20046;-59
2023/04/25 00:58:26;;;;;;;1.75;0.43;;;;;;;;;;5008587;28;20046;-55
2023/04/25 01:00:52;;;;;;;1.35;0.43;;;;;;;;;;5006190;28;20041;-57
2023/04/25 01:03:19;;;;;;;1.23;0.35;;;;;;;;;;5007529;28;20042;-64
2023/04/25 01:05:47;;;;;;;2.90;0.47;;;;;;;;;;5008764;28;20600;-58
2023/04/25 01:08:14;;;;;;;3.53;0.60;;;;;;;;;;5009180;28;20037;-54
2023/04/25 01:10:40;;;;;;;1.33;0.40;;;;;;;;;;5006784;28;20069;-59
2023/04/25 01:13:07;;;;;;;1.80;0.40;;;;;;;;;;5008181;28;20120;-59
2023/04/25 01:15:35;;;;;;;3.03;0.52;;;;;;;;;;5008116;28;20076;-63
2023/04/25 01:18:02;;;;;;;1.30;0.40;;;;;;;;;;5009129;28;20037;-59
2023/04/25 01:20:30;;;;;;;2.70;0.40;;;;;;;;;;5004636;28;20065;-60
2023/04/25 01:22:56;;;;;;;2.13;0.50;;;;;;;;;;5021124;28;20536;-57
2023/04/25 01:25:23;;;;;;;3.70;0.50;;;;;;;;;;5008440;28;20840;-60
2023/04/25 01:27:50;;;;;;;1.98;0.50;;;;;;;;;;5010894;28;20047;-61
2023/04/25 01:30:17;;;;;;;1.40;0.40;;;;;;;;;;5006939;28;20075;-62
2023/04/25 01:32:44;;;;;;;5.72;0.77;;;;;;;;;;5007842;28;20102;-58
2023/04/25 01:35:11;;;;;;;3.17;0.50;;;;;;;;;;5006423;28;20115;-57
2023/04/25 01:37:39;;;;;;;3.75;0.45;;;;;;;;;;5007453;28;21875;-60
2023/04/25 01:40:06;;;;;;;2.25;0.60;;;;;;;;;;5007796;28;20050;-59
2023/04/25 01:42:33;;;;;;;2.08;0.50;;;;;;;;;;5008827;28;20098;-59
2023/04/25 01:45:00;;;;;;;3.53;0.50;;;;;;;;;;5008600;28;20127;-60
2023/04/25 01:47:27;;;;;;;1.27;0.40;;;;;;;;;;5007736;28;20041;-61
2023/04/25 01:49:53;;;;;;;5.13;0.60;;;;;;;;;;5005725;28;20053;-63
2023/04/25 01:52:20;;;;;;;1.13;0.40;;;;;;;;;;5008293;28;20045;-60
2023/04/25 01:54:47;;;;;;;2.85;0.50;;;;;;;;;;5008383;28;20155;-58
2023/04/25 01:57:14;;;;;;;2.38;0.55;;;;;;;;;;5006757;28;20506;-59
2023/04/25 01:59:41;;;;;;;2.10;0.60;;;;;;;;;;5007127;28;20065;-58
2023/04/25 02:02:08;;;;;;;3.05;0.60;;;;;;;;;;5013875;28;20104;-58
2023/04/25 02:04:34;;;;;;;2.50;0.47;;;;;;;;;;5007905;28;20168;-59
2023/04/25 02:07:01;;;;;;;1.00;0.35;;;;;;;;;;5008774;28;20049;-57
2023/04/25 02:09:27;;;;;;;4.25;0.57;;;;;;;;;;5006993;28;20064;-57
2023/04/25 02:11:54;;;;;;;1.23;0.40;;;;;;;;;;5006570;28;20375;-58
2023/04/25 02:14:21;;;;;;;4.65;0.88;;;;;;;;;;5006657;28;20037;-63
2023/04/25 02:17:07;;;;;;;1.40;0.50;;;;;;;;;;5005988;28;20096;-59
2023/04/25 02:19:34;;;;;;;2.08;0.65;;;;;;;;;;5006712;28;20038;-57
2023/04/25 02:22:01;;;;;;;3.60;0.70;;;;;;;;;;4991207;28;20034;-57
2023/04/25 02:24:27;;;;;;;1.88;0.50;;;;;;;;;;5007487;28;20921;-58
2023/04/25 02:26:55;;;;;;;3.90;0.60;;;;;;;;;;5008148;28;20511;-56
2023/04/25 02:29:22;;;;;;;11.85;1.30;;;;;;;;;;5005998;28;20057;-65
2023/04/25 02:31:49;;;;;;;1.55;0.60;;;;;;;;;;5007560;28;21080;-58
2023/04/25 02:34:15;;;;;;;1.48;0.50;;;;;;;;;;5009175;28;20042;-63
2023/04/25 02:36:42;;;;;;;2.45;0.60;;;;;;;;;;5005813;28;20077;-56
2023/04/25 02:39:10;;;;;;;4.07;0.70;;;;;;;;;;5009414;28;20081;-57
2023/04/25 02:41:36;;;;;;;1.85;0.52;;;;;;;;;;4989563;28;21088;-57
2023/04/25 02:44:03;;;;;;;2.53;0.63;;;;;;;;;;5007511;28;20841;-56
2023/04/25 02:46:30;;;;;;;1.67;0.47;;;;;;;;;;4992150;28;20165;-56
2023/04/25 02:48:57;;;;;;;2.08;0.50;;;;;;;;;;5006531;28;20522;-56
2023/04/25 02:51:23;;;;;;;2.42;0.60;;;;;;;;;;4990721;28;20046;-57
2023/04/25 02:53:50;;;;;;;2.30;0.70;;;;;;;;;;4991596;28;20203;-57
2023/04/25 02:56:16;;;;;;;1.95;0.50;;;;;;;;;;5010412;28;20049;-57
2023/04/25 02:58:43;;;;;;;2.50;0.70;;;;;;;;;;5009221;28;20077;-56
2023/04/25 03:01:10;;;;;;;2.55;0.60;;;;;;;;;;5009902;28;20049;-58
2023/04/25 03:03:37;;;;;;;2.10;0.65;;;;;;;;;;5008775;28;20056;-57
2023/04/25 03:06:03;;;;;;;4.15;0.68;;;;;;;;;;5024405;28;20138;-57
2023/04/25 03:08:32;;;;;;;2.88;0.70;;;;;;;;;;5010223;28;20053;-56
2023/04/25 03:10:59;;;;;;;2.60;0.90;;;;;;;;;;5010469;28;20149;-56
2023/04/25 03:13:27;;;;;;;2.35;0.80;;;;;;;;;;5009797;28;20450;-57
2023/04/25 03:15:53;;;;;;;2.60;0.75;;;;;;;;;;5009631;28;20034;-61
2023/04/25 03:18:20;;;;;;;4.38;0.90;;;;;;;;;;5008262;28;20050;-63
2023/04/25 03:20:47;;;;;;;6.45;0.75;;;;;;;;;;5007819;28;20045;-57
2023/04/25 03:23:13;;;;;;;6.30;0.80;;;;;;;;;;5009802;28;20124;-57
2023/04/25 03:25:40;;;;;;;3.45;0.90;;;;;;;;;;5008567;28;20222;-54
2023/04/25 03:28:07;;;;;;;6.40;0.73;;;;;;;;;;5008510;28;20043;-56
2023/04/25 03:30:34;;;;;;;2.13;0.60;;;;;;;;;;5007333;28;20064;-57
2023/04/25 03:33:00;;;;;;;4.82;0.80;;;;;;;;;;5009142;28;20037;-57
2023/04/25 03:35:27;;;;;;;3.47;0.80;;;;;;;;;;5009138;28;20042;-57
2023/04/25 03:37:54;;;;;;;3.45;0.80;;;;;;;;;;5008959;28;20044;-59
2023/04/25 03:40:20;;;;;;;3.35;0.60;;;;;;;;;;5008962;28;20074;-58
2023/04/25 03:42:47;;;;;;;1.92;0.60;;;;;;;;;;5009759;28;20050;-57
2023/04/25 03:45:14;;;;;;;4.13;0.88;;;;;;;;;;5010618;28;20129;-59
2023/04/25 03:47:40;;;;;;;2.67;0.80;;;;;;;;;;5009975;28;20042;-58
2023/04/25 03:50:07;;;;;;;5.07;0.70;;;;;;;;;;5007652;28;20052;-57
2023/04/25 03:52:34;;;;;;;3.17;0.60;;;;;;;;;;5006987;28;20552;-56
2023/04/25 03:55:00;;;;;;;4.63;0.55;;;;;;;;;;5011261;28;20429;-57
2023/04/25 03:57:27;;;;;;;2.05;0.60;;;;;;;;;;5024716;28;20061;-58
2023/04/25 03:59:54;;;;;;;1.83;0.60;;;;;;;;;;5009073;28;20044;-58
2023/04/25 04:02:21;;;;;;;2.47;0.50;;;;;;;;;;5009693;28;20034;-58
2023/04/25 04:04:47;;;;;;;1.63;0.50;;;;;;;;;;5009729;28;20473;-56
2023/04/25 04:07:14;;;;;;;3.03;0.60;;;;;;;;;;5009813;28;20057;-59
2023/04/25 04:09:41;;;;;;;3.13;0.60;;;;;;;;;;5023306;28;20046;-55
2023/04/25 04:12:07;;;;;;;2.75;0.65;;;;;;;;;;5008720;28;20030;-59
2023/04/25 04:14:34;;;;;;;2.53;0.52;;;;;;;;;;5007840;28;20204;-61
2023/04/25 04:17:01;;;;;;;1.90;0.50;;;;;;;;;;5008465;28;20038;-56
2023/04/25 04:19:27;;;;;;;2.88;0.60;;;;;;;;;;5007069;28;20041;-58
2023/04/25 04:21:54;;;;;;;1.98;0.52;;;;;;;;;;5010113;28;20053;-59
2023/04/25 04:24:21;;;;;;;1.90;0.50;;;;;;;;;;5023564;28;20088;-61
2023/04/25 04:26:47;;;;;;;4.07;0.75;;;;;;;;;;5008742;28;21796;-59
2023/04/25 04:29:20;;;;;;;2.42;0.52;;;;;;;;;;5008095;28;20048;-59
2023/04/25 04:31:50;;;;;;;3.65;0.88;;;;;;;;;;5007805;28;20061;-59
2023/04/25 04:34:20;;;;;;;1.95;0.60;;;;;;;;;;5009547;28;20046;-57
2023/04/25 04:36:47;;;;;;;3.75;0.60;;;;;;;;;;5009028;28;20041;-58
2023/04/25 04:39:14;;;;;;;3.13;0.63;;;;;;;;;;5007388;28;20507;-60
2023/04/25 04:41:41;;;;;;;2.55;0.65;;;;;;;;;;5006329;28;20136;-57
2023/04/25 04:44:08;;;;;;;1.90;0.60;;;;;;;;;;5008438;28;20113;-57
2023/04/25 04:46:41;;;;;;;2.85;0.60;;;;;;;;;;5007668;28;20282;-57
2023/04/25 04:49:13;;;;;;;3.20;0.75;;;;;;;;;;5006656;28;20125;-61
2023/04/25 04:51:41;;;;;;;2.50;0.75;;;;;;;;;;5006863;28;21615;-57
2023/04/25 04:54:07;;;;;;;2.85;0.70;;;;;;;;;;5006059;28;20042;-58
2023/04/25 04:56:34;;;;;;;6.70;0.63;;;;;;;;;;5007628;28;20127;-58
2023/04/25 04:59:02;;;;;;;4.68;0.70;;;;;;;;;;5007711;28;20141;-59
2023/04/25 05:01:30;;;;;;;2.42;0.65;;;;;;;;;;5008521;28;20062;-60
2023/04/25 05:04:00;;;;;;;2.33;0.70;;;;;;;;;;5022965;28;20041;-57
2023/04/25 05:06:28;;;;;;;4.38;0.68;;;;;;;;;;5008041;28;20057;-59
2023/04/25 05:08:55;;;;;;;2.13;0.65;;;;;;;;;;5022627;28;20041;-57
2023/04/25 05:11:23;;;;;;;2.95;0.70;;;;;;;;;;5007973;28;20448;-56
2023/04/25 05:13:50;;;;;;;2.50;0.73;;;;;;;;;;5007208;28;20038;-55
2023/04/25 05:16:17;;;;;;;2.85;0.75;;;;;;;;;;5008022;28;21168;-59
2023/04/25 05:18:43;;;;;;;2.60;0.60;;;;;;;;;;5007085;28;20320;-55
2023/04/25 05:21:10;;;;;;;3.70;0.70;;;;;;;;;;5007578;28;20042;-57
2023/04/25 05:23:37;;;;;;;2.90;0.77;;;;;;;;;;5004381;28;20084;-59
2023/04/25 05:26:04;;;;;;;3.00;0.80;;;;;;;;;;5008776;28;20053;-57
2023/04/25 05:28:30;;;;;;;2.38;0.70;;;;;;;;;;5005368;28;20038;-57
2023/04/25 05:30:57;;;;;;;3.00;0.80;;;;;;;;;;5006467;28;20046;-55
2023/04/25 05:33:24;;;;;;;2.85;0.70;;;;;;;;;;5006513;28;20049;-58
2023/04/25 05:35:51;;;;;;;4.97;0.88;;;;;;;;;;5021378;28;20499;-56
2023/04/25 05:38:17;;;;;;;3.90;1.10;;;;;;;;;;5007018;28;21634;-57
2023/04/25 05:40:45;;;;;;;4.40;0.80;;;;;;;;;;5007615;28;20060;-58
2023/04/25 05:43:11;;;;;;;3.67;0.77;;;;;;;;;;5007429;28;20053;-56
2023/04/25 05:45:38;;;;;;;2.40;0.73;;;;;;;;;;5006519;28;20053;-57
2023/04/25 05:48:05;;;;;;;2.33;0.65;;;;;;;;;;5006857;28;20037;-57
2023/04/25 05:50:31;;;;;;;4.38;0.95;;;;;;;;;;5005103;28;20515;-57
2023/04/25 05:52:58;;;;;;;2.22;0.60;;;;;;;;;;5008808;28;20049;-58
2023/04/25 05:55:25;;;;;;;3.42;0.70;;;;;;;;;;5026521;28;20123;-57
2023/04/25 05:57:51;;;;;;;6.05;1.10;;;;;;;;;;5010646;28;20034;-57
2023/04/25 06:00:18;;;;;;;3.05;0.73;;;;;;;;;;5009556;28;20379;-58
2023/04/25 06:02:45;;;;;;;4.13;0.75;;;;;;;;;;5025368;28;20045;-57
2023/04/25 06:05:12;;;;;;;2.17;0.65;;;;;;;;;;5026136;28;20034;-57
2023/04/25 06:07:39;;;;;;;1.50;0.60;;;;;;;;;;5010237;28;20478;-58
2023/04/25 06:10:06;;;;;;;5.47;0.85;;;;;;;;;;5010256;28;20042;-57
2023/04/25 06:12:33;;;;;;;5.05;0.88;;;;;;;;;;5008191;28;20025;-57
2023/04/25 06:15:00;;;;;;;2.67;0.65;;;;;;;;;;5010371;28;20520;-57
2023/04/25 06:17:27;;;;;;;4.35;1.02;;;;;;;;;;5025689;28;20037;-57
2023/04/25 06:19:54;;;;;;;3.35;0.77;;;;;;;;;;5009628;28;20078;-57
2023/04/25 06:22:21;;;;;;;3.03;0.80;;;;;;;;;;5011710;28;20048;-57
2023/04/25 06:24:47;;;;;;;7.03;0.95;;;;;;;;;;5011013;28;20046;-57
2023/04/25 06:27:14;;;;;;;2.83;0.80;;;;;;;;;;5012294;28;20060;-56
2023/04/25 06:29:41;;;;;;;4.28;0.80;;;;;;;;;;5009733;28;20037;-56
2023/04/25 06:32:08;;;;;;;5.00;0.85;;;;;;;;;;5010841;28;20067;-60
2023/04/25 06:34:34;;;;;;;5.18;0.85;;;;;;;;;;5008973;28;20377;-56
2023/04/25 06:37:01;;;;;;;2.63;0.90;;;;;;;;;;5011463;28;20042;-57
2023/04/25 06:39:27;;;;;;;2.90;0.90;;;;;;;;;;5025262;28;20140;-57
2023/04/25 06:41:54;;;;;;;4.43;0.95;;;;;;;;;;5010663;28;20037;-56
2023/04/25 06:44:23;;;;;;;2.50;0.80;;;;;;;;;;5026437;28;20046;-57
2023/04/25 06:46:49;;;;;;;2.88;0.80;;;;;;;;;;5011253;28;20111;-55
2023/04/25 06:49:16;;;;;;;3.10;0.90;;;;;;;;;;5024967;28;21113;-54
2023/04/25 06:51:43;;;;;;;2.83;0.75;;;;;;;;;;5010070;28;20814;-56
2023/04/25 06:54:09;;;;;;;2.03;0.80;;;;;;;;;;5011702;28;20041;-57
2023/04/25 06:56:36;;;;;;;7.45;1.10;;;;;;;;;;5009844;28;20450;-57
2023/04/25 06:59:03;;;;;;;4.43;1.10;;;;;;;;;;5010134;28;20037;-57
2023/04/25 07:01:29;;;;;;;3.30;0.80;;;;;;;;;;5010523;28;20122;-57
2023/04/25 07:03:56;;;;;;;3.92;0.90;;;;;;;;;;5024522;28;20075;-56
2023/04/25 07:06:23;;;;;;;3.75;1.00;;;;;;;;;;5008180;28;20049;-56
2023/04/25 07:08:49;;;;;;;2.83;0.93;;;;;;;;;;5024253;28;20077;-56
2023/04/25 07:11:16;;;;;;;2.58;0.70;;;;;;;;;;5025892;28;20140;-57
2023/04/25 07:13:43;;;;;;;4.22;0.90;;;;;;;;;;5008822;28;20577;-53
2023/04/25 07:16:09;;;;;;;6.25;1.05;;;;;;;;;;5010653;28;20108;-57
2023/04/25 07:18:36;;;;;;;3.60;1.10;;;;;;;;;;5008785;28;20045;-57
2023/04/25 07:21:03;;;;;;;2.70;0.93;;;;;;;;;;5010077;28;20176;-56
2023/04/25 07:23:29;;;;;;;5.43;1.15;;;;;;;;;;5011808;28;20045;-57
2023/04/25 07:25:56;;;;;;;4.82;1.20;;;;;;;;;;5025278;28;20692;-56
2023/04/25 07:28:23;;;;;;;4.43;1.30;;;;;;;;;;5009245;28;20065;-61
2023/04/25 07:30:50;;;;;;;4.25;1.30;;;;;;;;;;5023961;28;20037;-57
2023/04/25 07:33:17;;;;;;;3.30;1.30;;;;;;;;;;5024817;28;20050;-57
2023/04/25 07:35:43;;;;;;;6.72;1.27;;;;;;;;;;5008070;28;20079;-57
2023/04/25 07:38:10;;;;;;;3.85;1.38;;;;;;;;;;5009141;28;20572;-56
2023/04/25 07:40:37;;;;;;;5.05;1.27;;;;;;;;;;5007106;28;20572;-57
2023/04/25 07:43:03;;;;;;;8.48;1.30;;;;;;;;;;5010521;28;20048;-56
2023/04/25 07:45:30;;;;;;;4.40;1.17;;;;;;;;;;5007361;28;20049;-54
2023/04/25 07:47:57;;;;;;;4.90;0.98;;;;;;;;;;5011230;28;20037;-56
2023/04/25 07:50:23;;;;;;;3.63;1.00;;;;;;;;;;5007516;28;20038;-56
2023/04/25 07:52:50;;;;;;;5.95;0.98;;;;;;;;;;5008483;28;20609;-56
2023/04/25 07:55:17;;;;;;;2.83;0.90;;;;;;;;;;5008512;28;20048;-57
2023/04/25 07:57:44;;;;;;;4.63;1.00;;;;;;;;;;5007861;28;20068;-62
2023/04/25 08:00:11;;;;;;;6.80;1.27;;;;;;;;;;5007885;28;20068;-57
2023/04/25 08:02:38;;;;;;;3.67;1.10;;;;;;;;;;5008227;28;20080;-61
2023/04/25 08:05:06;;;;;;;4.88;1.00;;;;;;;;;;5009258;28;20091;-58
2023/04/25 08:07:33;;;;;;;2.72;1.02;;;;;;;;;;5010012;28;20061;-58
2023/04/25 08:09:59;;;;;;;5.55;1.35;;;;;;;;;;5008033;28;20048;-59
2023/04/25 08:12:26;;;;;;;9.48;1.52;;;;;;;;;;5007494;28;20121;-57
2023/04/25 08:14:53;;;;;;;3.08;1.20;;;;;;;;;;5006422;28;20498;-55
2023/04/25 08:17:19;;;;;;;3.65;1.35;;;;;;;;;;5009522;28;20056;-56
2023/04/25 08:19:46;;;;;;;4.00;1.20;;;;;;;;;;5008536;28;20049;-56
2023/04/25 08:22:13;;;;;;;4.68;1.23;;;;;;;;;;5008597;28;20069;-55
2023/04/25 08:24:39;;;;;;;4.25;1.40;;;;;;;;;;5007532;28;20045;-58
2023/04/25 08:27:07;;;;;;;5.82;1.42;;;;;;;;;;5008266;28;21779;-56
2023/04/25 08:29:34;;;;;;;4.82;1.42;;;;;;;;;;5022114;28;20049;-58
2023/04/25 08:32:01;;;;;;;3.33;1.30;;;;;;;;;;5007419;28;20392;-58
2023/04/25 08:34:28;;;;;;;6.78;1.35;;;;;;;;;;5007027;28;20114;-58
2023/04/25 08:36:54;;;;;;;4.13;1.60;;;;;;;;;;5008017;28;20038;-58
2023/04/25 08:39:21;;;;;;;4.60;1.52;;;;;;;;;;5005763;28;20053;-57
2023/04/25 08:41:48;;;;;;;3.72;1.38;;;;;;;;;;5004750;28;20030;-57
2023/04/25 08:44:15;;;;;;;6.15;1.55;;;;;;;;;;5007867;28;20042;-60
2023/04/25 08:46:42;;;;;;;10.02;1.60;;;;;;;;;;5007109;28;20075;-56
2023/04/25 08:49:09;;;;;;;5.10;1.55;;;;;;;;;;5021545;28;20065;-60
2023/04/25 08:51:38;;;;;;;13.18;1.50;;;;;;;;;;5006671;28;20034;-56
2023/04/25 08:54:15;;;;;;;4.97;1.48;;;;;;;;;;5007550;28;20049;-57
2023/04/25 08:56:44;;;;;;;5.03;1.52;;;;;;;;;;5013317;28;20128;-57
2023/04/25 08:59:12;;;;;;;6.25;1.80;;;;;;;;;;5012890;28;20084;-52
2023/04/25 09:01:39;;;;;;;5.55;1.90;;;;;;;;;;5008986;28;20153;-55
2023/04/25 09:04:06;;;;;;;3.20;1.30;;;;;;;;;;5008993;28;20038;-57
2023/04/25 09:06:34;;;;;;;5.53;1.40;;;;;;;;;;5007235;28;20766;-58
2023/04/25 09:09:08;;;;;;;5.72;1.63;;;;;;;;;;5008016;28;20052;-59
2023/04/25 09:11:38;;;;;;;6.57;1.35;;;;;;;;;;5009854;28;20524;-57
2023/04/25 09:14:22;;;;;;;5.95;1.50;;;;;;;;;;5007858;28;20044;-57
2023/04/25 09:16:59;;;;;;;4.45;1.60;;;;;;;;;;5006358;28;20034;-55
2023/04/25 09:19:33;;;;;;;8.00;1.70;;;;;;;;;;5004737;28;20265;-59
2023/04/25 09:22:01;;;;;;;4.82;1.42;;;;;;;;;;5006596;28;20113;-58
2023/04/25 09:24:33;;;;;;;5.55;1.67;;;;;;;;;;5007755;28;20788;-57
2023/04/25 09:27:01;;;;;;;4.53;1.63;;;;;;;;;;5007637;28;20065;-56
2023/04/25 09:29:31;;;;;;;3.05;1.38;;;;;;;;;;5004823;28;20042;-57
2023/04/25 09:32:18;;;;;;;3.55;1.60;;;;;;;;;;5022591;28;20038;-56
2023/04/25 09:34:48;;;;;;;8.57;1.88;;;;;;;;;;5006556;28;20553;-58
2023/04/25 09:37:18;;;;;;;8.20;1.80;;;;;;;;;;5006126;28;20082;-58
2023/04/25 09:39:47;;;;;;;8.77;1.80;;;;;;;;;;5005932;28;20042;-58
2023/04/25 09:42:15;;;;;;;9.20;1.63;;;;;;;;;;5007185;28;20088;-63
2023/04/25 09:44:46;;;;;;;4.90;1.70;;;;;;;;;;5006470;28;20072;-55
2023/04/25 09:47:13;;;;;;;5.88;2.10;;;;;;;;;;5005074;28;20078;-57
2023/04/25 09:49:42;;;;;;;4.82;2.00;;;;;;;;;;5006058;28;20164;-57
2023/04/25 09:52:09;;;;;;;10.70;2.15;;;;;;;;;;5006542;28;20046;-57
2023/04/25 09:54:35;;;;;;;4.25;1.75;;;;;;;;;;5018958;28;20120;-58
2023/04/25 09:57:07;;;;;;;4.85;1.60;;;;;;;;;;5006410;28;20047;-56
2023/04/25 09:59:35;;;;;;;9.23;1.63;;;;;;;;;;5002487;28;20038;-57
2023/04/25 10:02:02;;;;;;;5.65;1.67;;;;;;;;;;5021168;28;20721;-57
2023/04/25 10:04:30;;;;;;;5.63;1.70;;;;;;;;;;5005484;28;20053;-57
2023/04/25 10:06:57;;;;;;;4.75;1.75;;;;;;;;;;5006702;28;20136;-56
2023/04/25 10:09:29;;;;;;;6.82;1.77;;;;;;;;;;5005506;28;20048;-57
2023/04/25 10:11:56;;;;;;;3.92;1.67;;;;;;;;;;5005371;28;20061;-57
2023/04/25 10:14:23;;;;;;;9.02;2.05;;;;;;;;;;5005931;28;20053;-56
2023/04/25 10:16:53;;;;;;;4.32;1.67;;;;;;;;;;5007627;28;20207;-57
2023/04/25 10:19:22;;;;;;;5.50;1.80;;;;;;;;;;5005257;28;20049;-57
2023/04/25 10:21:52;;;;;;;4.80;1.77;;;;;;;;;;5019587;28;20092;-57
2023/04/25 10:24:20;;;;;;;3.42;1.60;;;;;;;;;;5005941;28;20037;-59
2023/04/25 10:26:47;;;;;;;6.45;2.00;;;;;;;;;;5020202;28;20494;-57
2023/04/25 10:29:22;;;;;;;3.88;1.80;;;;;;;;;;5005100;28;20034;-56
2023/04/25 10:31:49;;;;;;;4.38;1.73;;;;;;;;;;5006876;28;20045;-58
2023/04/25 10:34:17;;;;;;;4.25;1.83;;;;;;;;;;5007010;28;20037;-57
2023/04/25 10:36:43;;;;;;;6.88;2.00;;;;;;;;;;5004744;28;20170;-56
2023/04/25 10:39:10;;;;;;;5.03;1.73;;;;;;;;;;5009605;28;20699;-58
2023/04/25 10:42:09;;;;;;;5.60;1.63;;;;;;;;;;5009940;28;20053;-57
2023/04/25 10:44:37;;;;;;;7.80;1.70;;;;;;;;;;5001114;28;20057;-55
2023/04/25 10:47:05;;;;;;;4.65;1.85;;;;;;;;;;5009428;28;20065;-54
2023/04/25 10:49:35;;;;;;;4.35;2.03;;;;;;;;;;5007949;28;20037;-57
2023/04/25 10:52:21;;;;;;;4.60;1.83;;;;;;;;;;5026002;28;20038;-60
2023/04/25 10:54:54;;;;;;;3.97;1.85;;;;;;;;;;5003494;28;20074;-56
2023/04/25 10:57:49;;;;;;;8.05;1.90;;;;;;;;;;5013396;28;20049;-56
2023/04/25 11:00:21;;;;;;;5.50;1.92;;;;;;;;;;5009371;28;20066;-56
2023/04/25 11:02:49;;;;;;;5.13;2.13;;;;;;;;;;5010801;28;20064;-56
2023/04/25 11:05:25;;;;;;;5.35;2.15;;;;;;;;;;5025056;28;20462;-57
2023/04/25 11:07:56;;;;;;;5.28;1.90;;;;;;;;;;5002376;28;20060;-56
2023/04/25 11:10:26;;;;;;;6.13;1.98;;;;;;;;;;5023363;28;21015;-55
2023/04/25 11:12:52;;;;;;;5.60;2.50;;;;;;;;;;5007835;28;20034;-57
2023/04/25 11:15:19;;;;;;;5.93;2.40;;;;;;;;;;5009581;28;20053;-58
2023/04/25 11:17:46;;;;;;;6.50;2.38;;;;;;;;;;5008211;28;20048;-57
2023/04/25 11:20:13;;;;;;;5.07;2.30;;;;;;;;;;5008897;28;20686;-56
2023/04/25 11:22:40;;;;;;;5.82;2.13;;;;;;;;;;5008799;28;20207;-55
2023/04/25 11:25:11;;;;;;;6.55;2.35;;;;;;;;;;5009046;28;20037;-56
2023/04/25 11:27:57;;;;;;;5.03;2.15;;;;;;;;;;5007424;28;20046;-57
2023/04/25 11:30:24;;;;;;;5.82;2.50;;;;;;;;;;5007462;28;20056;-64
2023/04/25 11:32:51;;;;;;;5.50;2.60;;;;;;;;;;5008575;28;20057;-58
2023/04/25 11:35:20;;;;;;;5.35;2.13;;;;;;;;;;5008224;28;20522;-57
2023/04/25 11:37:46;;;;;;;6.25;2.17;;;;;;;;;;5009239;28;20121;-57
2023/04/25 11:40:13;;;;;;;4.40;2.00;;;;;;;;;;5009173;28;20050;-57
2023/04/25 11:42:43;;;;;;;5.35;1.77;;;;;;;;;;5008893;28;20042;-58
2023/04/25 11:45:10;;;;;;;7.03;2.08;;;;;;;;;;5008936;28;20064;-58
2023/04/25 11:47:57;;;;;;;4.68;1.88;;;;;;;;;;5044422;28;21116;-57
2023/04/25 11:50:23;;;;;;;11.05;1.73;;;;;;;;;;5045628;28;20728;-57
2023/04/25 11:52:50;;;;;;;4.07;1.55;;;;;;;;;;5047930;28;20048;-60
2023/04/25 11:55:17;;;;;;;5.18;1.65;;;;;;;;;;5047274;28;20040;-58
2023/04/25 11:57:45;;;;;;;5.00;1.70;;;;;;;;;;5039386;28;20144;-61
2023/04/25 12:00:16;;;;;;;5.60;1.85;;;;;;;;;;5022432;28;20575;-63
2023/04/25 12:03:02;;;;;;;4.93;1.50;;;;;;;;;;5021318;28;20025;-62
2023/04/25 12:05:33;;;;;;;6.75;1.52;;;;;;;;;;5035550;28;20713;-59
2023/04/25 12:08:10;;;;;;;3.78;1.60;;;;;;;;;;5045108;28;20048;-58
2023/04/25 12:10:39;;;;;;;5.07;1.60;;;;;;;;;;5042400;28;20192;-59
2023/04/25 12:13:22;;;;;;;3.83;1.42;;;;;;;;;;5044744;28;20114;-58
2023/04/25 12:15:49;;;;;;;6.07;1.70;;;;;;;;;;5028780;28;20041;-56
2023/04/25 12:18:15;;;;;;;6.38;1.90;;;;;;;;;;5045093;28;20134;-61
2023/04/25 12:20:42;;;;;;;7.15;1.70;;;;;;;;;;5044698;28;20067;-59
2023/04/25 12:23:10;;;;;;;7.22;1.88;;;;;;;;;;5044779;28;20032;-58
2023/04/25 12:25:41;;;;;;;8.18;2.30;;;;;;;;;;5013215;28;20050;-58
2023/04/25 12:28:24;;;;;;;6.75;1.70;;;;;;;;;;5008011;28;20421;-58
2023/04/25 12:31:07;;;;;;;10.80;1.90;;;;;;;;;;5005323;28;20045;-63
2023/04/25 12:33:39;;;;;;;7.00;1.83;;;;;;;;;;5006850;28;20376;-58
2023/04/25 12:36:10;;;;;;;4.60;1.63;;;;;;;;;;5008201;28;20082;-58
2023/04/25 12:38:38;;;;;;;6.03;2.03;;;;;;;;;;5007950;28;20071;-60
2023/04/25 12:41:05;;;;;;;7.07;2.05;;;;;;;;;;5006870;28;20053;-54
2023/04/25 12:43:32;;;;;;;6.22;1.90;;;;;;;;;;5008503;28;20033;-55
2023/04/25 12:45:59;;;;;;;6.07;2.10;;;;;;;;;;5007316;28;20053;-57
2023/04/25 12:48:25;;;;;;;7.50;2.25;;;;;;;;;;5006718;28;20036;-58
2023/04/25 12:50:52;;;;;;;9.70;2.28;;;;;;;;;;5008633;28;20049;-57
2023/04/25 12:53:22;;;;;;;7.45;1.77;;;;;;;;;;5008020;28;20156;-57
2023/04/25 12:55:49;;;;;;;10.88;2.20;;;;;;;;;;5006604;28;20042;-57
2023/04/25 12:58:17;;;;;;;6.93;1.73;;;;;;;;;;5007570;28;20037;-57
2023/04/25 13:00:43;;;;;;;8.25;1.90;;;;;;;;;;5006378;28;20091;-58
2023/04/25 13:03:11;;;;;;;9.00;2.33;;;;;;;;;;5005486;28;20589;-57
2023/04/25 13:05:38;;;;;;;7.07;2.35;;;;;;;;;;5006145;28;20052;-59
2023/04/25 13:08:05;;;;;;;8.73;2.55;;;;;;;;;;5008547;28;20094;-61
2023/04/25 13:10:33;;;;;;;17.63;3.38;;;;;;;;;;5005979;28;20042;-57
2023/04/25 13:13:00;;;;;;;14.57;4.05;;;;;;;;;;5006620;28;20407;-57
2023/04/25 13:15:27;;;;;;;11.15;2.85;;;;;;;;;;5006774;28;20048;-58
2023/04/25 13:17:55;;;;;;;9.05;3.28;;;;;;;;;;5009305;28;20062;-65
2023/04/25 13:20:22;;;;;;;12.23;3.53;;;;;;;;;;5008133;28;20056;-61
2023/04/25 13:22:49;;;;;;;13.70;3.60;;;;;;;;;;5007826;28;20051;-59
2023/04/25 13:25:16;;;;;;;12.15;3.20;;;;;;;;;;5006958;28;20049;-64
2023/04/25 13:27:44;;;;;;;8.52;3.38;;;;;;;;;;5006550;28;20053;-57
2023/04/25 13:30:11;;;;;;;12.68;3.95;;;;;;;;;;5006722;28;20132;-58
2023/04/25 13:32:38;;;;;;;15.70;4.35;;;;;;;;;;5005389;28;20046;-60
2023/04/25 13:35:05;;;;;;;8.20;3.20;;;;;;;;;;5007308;28;20073;-58
2023/04/25 13:37:32;;;;;;;9.90;3.58;;;;;;;;;;5006408;28;21989;-58
2023/04/25 13:40:08;;;;;;;14.57;3.90;;;;;;;;;;5009214;28;21784;-59
2023/04/25 13:42:35;;;;;;;18.50;4.40;;;;;;;;;;5005938;28;20080;-58
2023/04/25 13:45:02;;;;;;;11.80;3.92;;;;;;;;;;5007965;28;20049;-61
2023/04/25 13:47:30;;;;;;;10.43;3.97;;;;;;;;;;5008491;28;20045;-55
2023/04/25 13:49:57;;;;;;;12.88;3.90;;;;;;;;;;5009999;28;20057;-57
2023/04/25 13:52:27;;;;;;;10.77;4.07;;;;;;;;;;5008827;28;20033;-57
2023/04/25 13:54:53;;;;;;;11.15;3.75;;;;;;;;;;5008970;28;20045;-60
2023/04/25 13:57:20;;;;;;;12.85;3.72;;;;;;;;;;5009899;28;20034;-57
2023/04/25 13:59:47;;;;;;;15.45;3.90;;;;;;;;;;5008433;28;20084;-56
2023/04/25 14:02:13;;;;;;;21.17;3.95;;;;;;;;;;5007720;28;20034;-58
2023/04/25 14:04:41;;;;;;;13.52;3.30;;;;;;;;;;5006158;28;20037;-57
2023/04/25 14:07:08;;;;;;;16.00;3.33;;;;;;;;;;5012850;28;21001;-56
2023/04/25 14:09:35;;;;;;;12.55;3.58;;;;;;;;;;5008298;28;20026;-56
2023/04/25 14:12:01;;;;;;;11.93;3.97;;;;;;;;;;5009244;28;20053;-57
2023/04/25 14:14:28;;;;;;;11.07;3.20;;;;;;;;;;5025523;28;20068;-57
2023/04/25 14:16:56;;;;;;;14.05;3.10;;;;;;;;;;5010540;28;20052;-57
2023/04/25 14:19:24;;;;;;;7.75;2.78;;;;;;;;;;5010041;28;20038;-57
2023/04/25 14:21:50;;;;;;;11.85;3.25;;;;;;;;;;5013025;28;20034;-56
2023/04/25 14:24:17;;;;;;;14.13;3.63;;;;;;;;;;5012357;28;20037;-57
2023/04/25 14:26:44;;;;;;;10.75;3.50;;;;;;;;;;5012457;28;20049;-57
2023/04/25 14:29:14;;;;;;;12.18;3.50;;;;;;;;;;5012079;28;20045;-58
2023/04/25 14:31:40;;;;;;;12.15;3.55;;;;;;;;;;5008943;28;20586;-57
2023/04/25 14:34:08;;;;;;;9.45;3.38;;;;;;;;;;5009984;28;20068;-57
2023/04/25 14:36:34;;;;;;;15.55;2.97;;;;;;;;;;5010549;28;20049;-56
2023/04/25 14:39:01;;;;;;;10.75;3.50;;;;;;;;;;5010135;28;20076;-55
2023/04/25 14:41:28;;;;;;;10.52;3.80;;;;;;;;;;5009333;28;20046;-57
2023/04/25 14:43:56;;;;;;;7.72;3.13;;;;;;;;;;5011735;28;20050;-57
2023/04/25 14:46:23;;;;;;;11.02;2.80;;;;;;;;;;5011144;28;20097;-59